Aérodrome :
LOGIN :

S'inscrire | Disclaimer

   EN    FR    IT 

 










Légende :    VFR   VFR Marginal   IFR   IFR Intensif   IFR Très Intensif
Visi : 
Plafond : 
>= 8 km
>= 3000ft
5 à 8 km
1000 à 3000 ft
1500m à 5 km
500 à 1000 ft
800 à 1500m
200 à 500 ft
< 800m
< 200 ft
Symboles :   Orages  Brouillard  Fortes neiges  Fortes précipitations  Vent > 20 kt
SIGMETs :   Divers  Orages  Givrage  Turbulence  Onde Orograph.  Cendres Volcan.






- Altitude de l'aérodrome : 459 ft
- Code IATA : CER


LFRC - Cherbourg / Maupertus

DERNIER METAR :
  • 272130Z AUTO 27008KT CAVOK 04/00 Q1016

METARs EXPIRÉS :
  • 272100Z AUTO 27007KT CAVOK 04/00 Q1016
  • 272030Z AUTO 30008KT CAVOK 06/M00 Q1015
  • 272000Z AUTO 30010KT 9999 FEW032 06/M00 Q1015
  • 271930Z AUTO 30010KT 9999 FEW033 06/01 Q1015
  • 271900Z AUTO 30010KT 270V330 9999 FEW035 06/01 Q1014

TAF TAF LFRC
Valide du 27 à 15h jusqu'au 28 à 00h UTC


271400Z 2715/2724 31015G25KT 9999 SCT025
BECMG 2716/2718 31010KT
BECMG 2720/2723 VRB05KT



MET'MAP, la Météo Aéronautique d'un coup d'oeil ! - Copyright ORBIFLY Décembre 2007 - Disclaimer

ORBIFLY MET'MAP TEAM :

Programmation & Développement : Alexandra Zaïnal
Sur une idée originale de : Baudouin d'Aumeries
Assistance à la programmation : Marc-Olivier Méhu
Soutien technique & logistique : Manuel Goepfert

Contact : metmap@orbifly.com




SOURCES & CREDITS :

   NOAA